Time;durP1;ratioP1;P1;durP2;ratioP2;P2;SDS_P1;SDS_P2;PMS_P1;PMS_P2;Temp;Humidity;BMP_temperature;BMP_pressure;BME280_temperature;BME280_humidity;BME280_pressure;Samples;Min_cycle;Max_cycle;Signal;HPM_P1;HPM_P2
2022/01/11 00:01:48;;;;;;;37.33;19.70;;;;;;;;;;4937252;29;20094;-67
2022/01/11 00:04:17;;;;;;;35.10;20.20;;;;;;;;;;4937856;29;20506;-67
2022/01/11 00:06:49;;;;;;;36.53;20.35;;;;;;;;;;4948864;29;20419;-68
2022/01/11 00:09:51;;;;;;;37.40;20.13;;;;;;;;;;4956045;28;20117;-67
2022/01/11 00:12:10;;;;;;;39.33;21.42;;;;;;;;;;4964225;28;20051;-67
2022/01/11 00:14:37;;;;;;;36.80;20.58;;;;;;;;;;4963286;28;20167;-68
2022/01/11 00:17:04;;;;;;;35.97;20.58;;;;;;;;;;4950036;28;20075;-68
2022/01/11 00:19:33;;;;;;;36.67;22.50;;;;;;;;;;4952858;29;20059;-68
2022/01/11 00:22:02;;;;;;;40.55;23.55;;;;;;;;;;4962962;28;20043;-68
2022/01/11 00:24:29;;;;;;;45.90;22.30;;;;;;;;;;4963021;28;20051;-68
2022/01/11 00:27:00;;;;;;;38.45;21.25;;;;;;;;;;4962224;28;20055;-68
2022/01/11 00:29:27;;;;;;;41.33;19.33;;;;;;;;;;4962964;28;20058;-68
2022/01/11 00:31:58;;;;;;;39.22;20.90;;;;;;;;;;4963557;28;20121;-69
2022/01/11 00:34:26;;;;;;;37.33;20.48;;;;;;;;;;4963621;28;20051;-69
2022/01/11 00:36:53;;;;;;;34.08;18.42;;;;;;;;;;4962886;28;20110;-69
2022/01/11 00:39:19;;;;;;;39.88;20.23;;;;;;;;;;4961611;29;20051;-66
2022/01/11 00:41:46;;;;;;;35.97;17.75;;;;;;;;;;4960731;28;20083;-68
2022/01/11 00:44:12;;;;;;;34.22;18.65;;;;;;;;;;4960456;28;20051;-69
2022/01/11 00:46:40;;;;;;;36.70;19.52;;;;;;;;;;4960157;28;20110;-68
2022/01/11 00:49:07;;;;;;;32.65;18.77;;;;;;;;;;4959782;28;20078;-68
2022/01/11 00:51:34;;;;;;;33.97;18.08;;;;;;;;;;4960214;28;20130;-67
2022/01/11 00:54:00;;;;;;;38.65;18.55;;;;;;;;;;4970388;28;20113;-67
2022/01/11 00:56:27;;;;;;;31.13;16.98;;;;;;;;;;4954919;29;20125;-67
2022/01/11 00:58:54;;;;;;;31.40;18.90;;;;;;;;;;4955088;28;20051;-67
2022/01/11 01:01:21;;;;;;;32.42;17.50;;;;;;;;;;4954956;28;20055;-67
2022/01/11 01:03:48;;;;;;;30.55;17.67;;;;;;;;;;4955033;28;20454;-66
2022/01/11 01:06:15;;;;;;;34.92;19.05;;;;;;;;;;4955007;28;20055;-67
2022/01/11 01:08:41;;;;;;;35.55;17.65;;;;;;;;;;4954676;28;20051;-67
2022/01/11 01:11:08;;;;;;;31.13;17.77;;;;;;;;;;4955050;28;20050;-67
2022/01/11 01:13:35;;;;;;;32.72;17.95;;;;;;;;;;4954778;28;20051;-67
2022/01/11 01:16:01;;;;;;;42.05;21.45;;;;;;;;;;4937724;28;20052;-69
2022/01/11 01:18:29;;;;;;;40.30;20.98;;;;;;;;;;4934283;29;20051;-67
2022/01/11 01:20:56;;;;;;;39.15;19.70;;;;;;;;;;4935769;29;20047;-67
2022/01/11 01:23:24;;;;;;;38.90;20.33;;;;;;;;;;4935323;29;20048;-67
2022/01/11 01:25:50;;;;;;;35.92;20.45;;;;;;;;;;4950531;28;20055;-67
2022/01/11 01:28:17;;;;;;;35.42;20.70;;;;;;;;;;4954478;28;20047;-67
2022/01/11 01:30:45;;;;;;;33.58;18.88;;;;;;;;;;4954391;28;20047;-67
2022/01/11 01:33:12;;;;;;;32.05;19.17;;;;;;;;;;4954290;28;20083;-67
2022/01/11 01:35:41;;;;;;;27.88;17.42;;;;;;;;;;4941015;28;20153;-67
2022/01/11 01:38:08;;;;;;;36.10;18.80;;;;;;;;;;4935064;29;20055;-68
2022/01/11 01:40:43;;;;;;;32.78;18.48;;;;;;;;;;4935453;29;20051;-67
2022/01/11 01:43:11;;;;;;;31.63;17.83;;;;;;;;;;4935661;29;20111;-67
2022/01/11 01:45:39;;;;;;;32.88;17.70;;;;;;;;;;4949481;29;20078;-67
2022/01/11 01:48:07;;;;;;;37.35;18.80;;;;;;;;;;4956419;28;20110;-67
2022/01/11 01:50:34;;;;;;;36.75;19.45;;;;;;;;;;4954575;28;20059;-67
2022/01/11 01:53:03;;;;;;;34.58;18.08;;;;;;;;;;4954207;28;20083;-67
2022/01/11 01:55:30;;;;;;;36.20;20.33;;;;;;;;;;4953447;28;20055;-67
2022/01/11 01:57:57;;;;;;;37.50;19.27;;;;;;;;;;4953712;28;20062;-67
2022/01/11 02:00:24;;;;;;;39.60;19.80;;;;;;;;;;4953820;28;20110;-67
2022/01/11 02:02:51;;;;;;;34.20;19.17;;;;;;;;;;4953840;28;20102;-67
2022/01/11 02:05:18;;;;;;;36.85;18.45;;;;;;;;;;4952876;29;20055;-67
2022/01/11 02:07:44;;;;;;;35.80;19.63;;;;;;;;;;4953677;28;20059;-67
2022/01/11 02:10:11;;;;;;;42.40;19.90;;;;;;;;;;4953881;28;20125;-67
2022/01/11 02:12:38;;;;;;;37.55;21.38;;;;;;;;;;4953527;28;20047;-67
2022/01/11 02:15:05;;;;;;;37.63;20.20;;;;;;;;;;4955027;28;20051;-66
2022/01/11 02:17:33;;;;;;;42.65;21.08;;;;;;;;;;4954166;28;20106;-67
2022/01/11 02:20:00;;;;;;;40.72;22.05;;;;;;;;;;4956536;28;20422;-67
2022/01/11 02:22:26;;;;;;;39.03;23.38;;;;;;;;;;4953610;28;20106;-67
2022/01/11 02:24:53;;;;;;;45.65;22.65;;;;;;;;;;4953493;28;20506;-67
2022/01/11 02:27:20;;;;;;;40.45;22.90;;;;;;;;;;4953796;28;20051;-66
2022/01/11 02:29:47;;;;;;;44.63;23.17;;;;;;;;;;4953600;28;20129;-67
2022/01/11 02:32:14;;;;;;;48.25;23.23;;;;;;;;;;4953358;28;20047;-67
2022/01/11 02:34:41;;;;;;;45.00;23.20;;;;;;;;;;4953540;28;20055;-67
2022/01/11 02:37:08;;;;;;;46.50;23.42;;;;;;;;;;4953630;28;20077;-67
2022/01/11 02:39:34;;;;;;;48.38;24.00;;;;;;;;;;4956661;28;20407;-66
2022/01/11 02:42:02;;;;;;;42.50;23.42;;;;;;;;;;4957626;28;20055;-67
2022/01/11 02:44:28;;;;;;;45.17;23.33;;;;;;;;;;4957092;28;20055;-67
2022/01/11 02:46:55;;;;;;;41.90;23.13;;;;;;;;;;4957508;28;20047;-67
2022/01/11 02:49:22;;;;;;;43.08;23.52;;;;;;;;;;4957183;28;20086;-67
2022/01/11 02:51:49;;;;;;;45.55;22.95;;;;;;;;;;4957207;28;20415;-67
2022/01/11 02:54:15;;;;;;;43.30;23.55;;;;;;;;;;4957173;28;20051;-67
2022/01/11 02:56:42;;;;;;;43.10;22.30;;;;;;;;;;4939842;28;20047;-67
2022/01/11 02:59:09;;;;;;;41.20;23.30;;;;;;;;;;4937902;29;20056;-67
2022/01/11 03:01:36;;;;;;;42.95;23.38;;;;;;;;;;4938166;29;20098;-67
2022/01/11 03:04:03;;;;;;;53.17;24.88;;;;;;;;;;4937947;29;20055;-67
2022/01/11 03:06:30;;;;;;;48.25;22.70;;;;;;;;;;4937824;29;20056;-67
2022/01/11 03:08:56;;;;;;;45.72;22.73;;;;;;;;;;4937713;29;20114;-67
2022/01/11 03:11:25;;;;;;;51.67;22.85;;;;;;;;;;4937610;29;20414;-67
2022/01/11 03:13:51;;;;;;;44.58;22.02;;;;;;;;;;4937524;29;20503;-67
2022/01/11 03:16:18;;;;;;;50.72;23.25;;;;;;;;;;4951206;29;20561;-67
2022/01/11 03:18:45;;;;;;;42.10;23.55;;;;;;;;;;4956693;28;20125;-67
2022/01/11 03:21:12;;;;;;;41.25;23.92;;;;;;;;;;4956693;28;20055;-67
2022/01/11 03:23:39;;;;;;;43.05;23.75;;;;;;;;;;4959312;28;20105;-67
2022/01/11 03:26:07;;;;;;;50.80;24.52;;;;;;;;;;4959166;28;20102;-68
2022/01/11 03:28:34;;;;;;;46.05;24.27;;;;;;;;;;4959278;28;20470;-67
2022/01/11 03:31:01;;;;;;;39.28;22.38;;;;;;;;;;4959259;28;20055;-67
2022/01/11 03:33:28;;;;;;;45.08;25.33;;;;;;;;;;4959291;28;20517;-67
2022/01/11 03:35:55;;;;;;;47.08;24.73;;;;;;;;;;4948472;28;20447;-68
2022/01/11 03:38:22;;;;;;;44.70;22.95;;;;;;;;;;4937466;29;20118;-66
2022/01/11 03:40:50;;;;;;;44.53;23.73;;;;;;;;;;4938258;29;20103;-66
2022/01/11 03:43:16;;;;;;;49.85;24.52;;;;;;;;;;4937535;29;20052;-66
2022/01/11 03:45:43;;;;;;;46.85;23.48;;;;;;;;;;4946296;29;20512;-67
2022/01/11 03:48:13;;;;;;;48.03;24.67;;;;;;;;;;4956754;28;20048;-68
2022/01/11 03:50:40;;;;;;;39.92;22.77;;;;;;;;;;4956808;28;20106;-68
2022/01/11 03:53:14;;;;;;;45.30;24.35;;;;;;;;;;4956412;28;20051;-68
2022/01/11 03:58:25;;;;;;;42.35;22.52;;;;;;;;;;4956926;28;20117;-68
2022/01/11 04:00:55;;;;;;;43.35;22.90;;;;;;;;;;4957321;28;20059;-68
2022/01/11 04:03:22;;;;;;;42.30;23.33;;;;;;;;;;4956239;28;20573;-68
2022/01/11 04:05:49;;;;;;;40.35;22.83;;;;;;;;;;4947859;28;20103;-68
2022/01/11 04:08:19;;;;;;;42.30;22.45;;;;;;;;;;4937742;29;20058;-67
2022/01/11 04:10:46;;;;;;;41.70;23.25;;;;;;;;;;4937321;29;20103;-69
2022/01/11 04:13:12;;;;;;;42.92;22.20;;;;;;;;;;4937167;29;20083;-68
2022/01/11 04:15:39;;;;;;;41.50;21.77;;;;;;;;;;4937576;29;20103;-67
2022/01/11 04:18:05;;;;;;;48.63;24.50;;;;;;;;;;4937202;29;20051;-68
2022/01/11 04:20:32;;;;;;;44.03;22.52;;;;;;;;;;4936899;29;20060;-68
2022/01/11 04:22:59;;;;;;;43.72;23.27;;;;;;;;;;4937261;29;20099;-67
2022/01/11 04:25:25;;;;;;;46.95;24.48;;;;;;;;;;4938216;29;20147;-68
2022/01/11 04:27:52;;;;;;;42.40;22.88;;;;;;;;;;4936878;29;20051;-68
2022/01/11 04:30:19;;;;;;;45.03;21.80;;;;;;;;;;4936963;29;20131;-69
2022/01/11 04:32:45;;;;;;;54.15;26.00;;;;;;;;;;4936655;29;20100;-67
2022/01/11 04:35:15;;;;;;;44.58;23.00;;;;;;;;;;4936932;29;20106;-68
2022/01/11 04:37:44;;;;;;;38.95;20.92;;;;;;;;;;4936844;29;20051;-68
2022/01/11 04:40:11;;;;;;;43.85;23.23;;;;;;;;;;4937186;29;20055;-68
2022/01/11 04:42:38;;;;;;;39.95;22.85;;;;;;;;;;4936750;29;20051;-67
2022/01/11 04:45:05;;;;;;;37.88;22.33;;;;;;;;;;4936684;29;20471;-67
2022/01/11 04:47:32;;;;;;;46.33;25.60;;;;;;;;;;4936631;29;20470;-67
2022/01/11 04:49:59;;;;;;;40.78;21.85;;;;;;;;;;4936406;29;20119;-67
2022/01/11 04:52:25;;;;;;;41.25;24.95;;;;;;;;;;4936019;29;20079;-68
2022/01/11 04:54:52;;;;;;;39.15;22.10;;;;;;;;;;4935968;29;20098;-68
2022/01/11 04:57:38;;;;;;;43.88;22.20;;;;;;;;;;4936270;29;20464;-67
2022/01/11 05:00:06;;;;;;;42.80;21.95;;;;;;;;;;4936512;29;20491;-68
2022/01/11 05:02:32;;;;;;;49.08;23.92;;;;;;;;;;4935247;29;20487;-67
2022/01/11 05:04:59;;;;;;;40.53;22.38;;;;;;;;;;4945383;29;20055;-68
2022/01/11 05:07:26;;;;;;;45.75;22.52;;;;;;;;;;4954643;28;20110;-68
2022/01/11 05:09:53;;;;;;;42.20;23.23;;;;;;;;;;4953974;28;20087;-68
2022/01/11 05:12:20;;;;;;;45.40;24.33;;;;;;;;;;4953853;29;20487;-68
2022/01/11 05:14:46;;;;;;;45.58;24.08;;;;;;;;;;4942515;28;20051;-68
2022/01/11 05:17:13;;;;;;;40.38;23.83;;;;;;;;;;4934843;29;20060;-67
2022/01/11 05:19:40;;;;;;;45.30;24.45;;;;;;;;;;4934762;29;20051;-68
2022/01/11 05:22:06;;;;;;;42.60;25.13;;;;;;;;;;4935036;29;20047;-68
2022/01/11 05:24:33;;;;;;;42.78;24.42;;;;;;;;;;4934676;29;20110;-68
2022/01/11 05:26:59;;;;;;;49.83;24.48;;;;;;;;;;4934942;29;20115;-67
2022/01/11 05:29:26;;;;;;;45.67;25.17;;;;;;;;;;4934631;29;20492;-70
2022/01/11 05:31:53;;;;;;;45.42;25.10;;;;;;;;;;4934574;29;20047;-68
2022/01/11 05:34:19;;;;;;;47.80;25.85;;;;;;;;;;4934338;29;20471;-68
2022/01/11 05:36:46;;;;;;;44.58;23.88;;;;;;;;;;4934804;29;20087;-68
2022/01/11 05:39:12;;;;;;;46.80;25.48;;;;;;;;;;4934563;29;20118;-68
2022/01/11 05:41:39;;;;;;;54.83;26.55;;;;;;;;;;4934963;29;20056;-68
2022/01/11 05:44:06;;;;;;;47.80;23.90;;;;;;;;;;4934295;29;20055;-69
2022/01/11 05:46:32;;;;;;;50.13;24.73;;;;;;;;;;4934492;29;20093;-69
2022/01/11 05:48:59;;;;;;;42.83;24.33;;;;;;;;;;4934449;29;20052;-68
2022/01/11 05:51:26;;;;;;;50.20;26.25;;;;;;;;;;4934106;29;20055;-68
2022/01/11 05:53:54;;;;;;;48.05;23.83;;;;;;;;;;4937681;29;20047;-68
2022/01/11 05:56:20;;;;;;;48.58;24.58;;;;;;;;;;4953473;29;20055;-67
2022/01/11 05:58:47;;;;;;;46.60;24.00;;;;;;;;;;4953346;28;20055;-68
2022/01/11 06:01:14;;;;;;;50.15;24.58;;;;;;;;;;4951601;28;20050;-68
2022/01/11 06:03:41;;;;;;;47.53;23.92;;;;;;;;;;4953488;28;20051;-68
2022/01/11 06:06:08;;;;;;;44.95;23.42;;;;;;;;;;4953637;28;20106;-68
2022/01/11 06:08:34;;;;;;;48.35;25.55;;;;;;;;;;4931306;28;1101369;-67
2022/01/11 06:11:01;;;;;;;42.33;22.63;;;;;;;;;;4949235;28;20052;-69
2022/01/11 06:13:28;;;;;;;44.92;24.02;;;;;;;;;;4934162;29;20048;-67
2022/01/11 06:15:54;;;;;;;42.00;23.45;;;;;;;;;;4935409;29;20055;-67
2022/01/11 06:18:21;;;;;;;50.03;23.73;;;;;;;;;;4949746;28;20065;-67
2022/01/11 06:20:48;;;;;;;46.55;24.38;;;;;;;;;;4935615;29;20495;-67
2022/01/11 06:23:14;;;;;;;48.65;26.33;;;;;;;;;;4935176;29;20400;-67
2022/01/11 06:25:41;;;;;;;50.35;26.50;;;;;;;;;;4934333;29;20471;-67
2022/01/11 06:28:07;;;;;;;46.15;24.67;;;;;;;;;;4935040;29;20052;-69
2022/01/11 06:30:34;;;;;;;42.85;23.85;;;;;;;;;;4939317;29;20569;-69
2022/01/11 06:33:01;;;;;;;44.28;23.70;;;;;;;;;;4954126;28;20442;-67
2022/01/11 06:35:27;;;;;;;40.88;22.77;;;;;;;;;;4955696;28;20342;-67
2022/01/11 06:37:54;;;;;;;44.92;23.95;;;;;;;;;;4954049;28;20462;-68
2022/01/11 06:40:22;;;;;;;47.60;23.73;;;;;;;;;;4952469;28;20051;-67
2022/01/11 06:42:50;;;;;;;49.03;24.95;;;;;;;;;;4953388;29;20585;-67
2022/01/11 06:45:17;;;;;;;41.83;22.98;;;;;;;;;;4935061;28;20056;-68
2022/01/11 06:47:44;;;;;;;41.78;23.38;;;;;;;;;;4934806;29;20514;-68
2022/01/11 06:50:11;;;;;;;40.03;22.77;;;;;;;;;;4958405;28;20055;-68
2022/01/11 06:52:37;;;;;;;43.10;24.10;;;;;;;;;;4953767;29;20122;-67
2022/01/11 06:55:06;;;;;;;41.92;23.80;;;;;;;;;;4957467;28;20609;-67
2022/01/11 06:57:33;;;;;;;41.03;22.20;;;;;;;;;;4955211;28;20481;-67
2022/01/11 06:59:59;;;;;;;41.58;22.48;;;;;;;;;;4953982;28;20051;-68
2022/01/11 07:02:26;;;;;;;45.53;24.33;;;;;;;;;;4961920;28;20062;-68
2022/01/11 07:04:53;;;;;;;43.13;22.75;;;;;;;;;;4953632;29;20055;-68
2022/01/11 07:07:20;;;;;;;45.80;22.63;;;;;;;;;;4953503;28;20055;-67
2022/01/11 07:09:46;;;;;;;45.22;22.15;;;;;;;;;;4953513;28;20130;-67
2022/01/11 07:12:13;;;;;;;53.20;24.52;;;;;;;;;;4953738;29;20098;-68
2022/01/11 07:14:39;;;;;;;45.25;22.45;;;;;;;;;;4953592;29;20059;-67
2022/01/11 07:17:06;;;;;;;35.50;21.77;;;;;;;;;;4953414;28;20055;-67
2022/01/11 07:19:34;;;;;;;43.50;23.27;;;;;;;;;;4953442;28;20059;-67
2022/01/11 07:22:01;;;;;;;44.45;23.10;;;;;;;;;;4953509;28;20051;-67
2022/01/11 07:24:27;;;;;;;46.78;24.02;;;;;;;;;;4954347;28;20566;-67
2022/01/11 07:26:54;;;;;;;43.17;22.90;;;;;;;;;;4957027;28;20114;-67
2022/01/11 07:29:21;;;;;;;41.05;23.30;;;;;;;;;;4956793;28;20051;-67
2022/01/11 07:31:47;;;;;;;43.08;23.13;;;;;;;;;;4949890;28;20147;-69
2022/01/11 07:34:14;;;;;;;46.95;22.65;;;;;;;;;;4956346;28;20047;-67
2022/01/11 07:36:42;;;;;;;46.60;23.98;;;;;;;;;;4957022;28;20102;-67
2022/01/11 07:39:10;;;;;;;42.50;23.77;;;;;;;;;;4956630;28;20470;-67
2022/01/11 07:41:38;;;;;;;43.90;23.00;;;;;;;;;;4956150;28;20051;-67
2022/01/11 07:44:05;;;;;;;42.80;24.10;;;;;;;;;;4937191;29;20043;-65
2022/01/11 07:46:32;;;;;;;43.15;22.75;;;;;;;;;;4937250;29;20676;-66
2022/01/11 07:48:59;;;;;;;40.40;22.95;;;;;;;;;;4954523;28;20105;-66
2022/01/11 07:51:26;;;;;;;39.15;20.60;;;;;;;;;;4949834;29;20090;-67
2022/01/11 07:53:53;;;;;;;39.35;21.70;;;;;;;;;;4952920;28;20051;-67
2022/01/11 07:56:19;;;;;;;49.53;22.50;;;;;;;;;;4949141;29;20471;-66
2022/01/11 07:58:46;;;;;;;43.35;21.70;;;;;;;;;;4951866;28;20517;-67
2022/01/11 08:01:13;;;;;;;47.00;23.35;;;;;;;;;;4952481;28;20055;-66
2022/01/11 08:03:40;;;;;;;37.80;20.95;;;;;;;;;;4952630;28;20079;-66
2022/01/11 08:06:06;;;;;;;43.70;24.17;;;;;;;;;;4952853;28;20077;-67
2022/01/11 08:08:33;;;;;;;40.08;22.40;;;;;;;;;;4952248;28;20565;-67
2022/01/11 08:11:00;;;;;;;46.47;22.60;;;;;;;;;;4952638;28;20112;-67
2022/01/11 08:13:26;;;;;;;44.55;21.83;;;;;;;;;;4952372;28;20532;-67
2022/01/11 08:15:53;;;;;;;43.95;23.05;;;;;;;;;;4951848;28;20129;-67
2022/01/11 08:18:20;;;;;;;39.47;21.52;;;;;;;;;;4952481;28;20055;-67
2022/01/11 08:20:47;;;;;;;42.80;22.30;;;;;;;;;;4952690;28;20339;-66
2022/01/11 08:23:14;;;;;;;38.58;21.77;;;;;;;;;;4952357;28;20051;-67
2022/01/11 08:25:41;;;;;;;44.25;22.30;;;;;;;;;;4952473;28;20077;-67
2022/01/11 08:28:09;;;;;;;38.38;21.73;;;;;;;;;;4947394;28;20056;-66
2022/01/11 08:30:36;;;;;;;41.97;22.35;;;;;;;;;;4950591;29;20058;-67
2022/01/11 08:33:04;;;;;;;45.13;22.60;;;;;;;;;;4950964;28;20117;-66
2022/01/11 08:35:31;;;;;;;46.10;22.65;;;;;;;;;;4950759;28;20051;-65
2022/01/11 08:38:03;;;;;;;46.40;22.65;;;;;;;;;;4952134;28;20055;-65
2022/01/11 08:40:30;;;;;;;36.10;21.17;;;;;;;;;;4949722;29;20097;-66
2022/01/11 08:42:56;;;;;;;40.95;21.70;;;;;;;;;;4953517;28;20098;-66
2022/01/11 08:45:23;;;;;;;37.15;21.85;;;;;;;;;;4951661;28;20059;-66
2022/01/11 08:47:50;;;;;;;42.25;23.38;;;;;;;;;;4951590;28;20047;-67
2022/01/11 08:50:17;;;;;;;43.47;23.08;;;;;;;;;;4951883;28;20573;-66
2022/01/11 08:52:45;;;;;;;38.88;22.38;;;;;;;;;;4951756;28;20046;-66
2022/01/11 08:55:12;;;;;;;37.45;22.60;;;;;;;;;;4951342;28;20055;-65
2022/01/11 08:57:39;;;;;;;45.40;24.67;;;;;;;;;;4950987;28;20115;-65
2022/01/11 09:00:13;;;;;;;41.85;22.88;;;;;;;;;;4948198;29;20051;-66
2022/01/11 09:02:39;;;;;;;40.88;22.27;;;;;;;;;;4951090;29;20088;-65
2022/01/11 09:05:07;;;;;;;36.63;20.83;;;;;;;;;;4952052;28;20067;-66
2022/01/11 09:07:34;;;;;;;34.90;20.52;;;;;;;;;;4948778;28;20051;-68
2022/01/11 09:10:01;;;;;;;39.92;23.02;;;;;;;;;;4951105;28;20110;-66
2022/01/11 09:12:27;;;;;;;42.50;21.23;;;;;;;;;;4951901;28;20110;-67
2022/01/11 09:14:54;;;;;;;34.85;21.05;;;;;;;;;;4953346;28;20055;-67
2022/01/11 09:17:20;;;;;;;34.78;20.67;;;;;;;;;;4953146;28;20059;-67
2022/01/11 09:19:47;;;;;;;42.22;23.38;;;;;;;;;;4953017;28;20330;-66
2022/01/11 09:22:14;;;;;;;38.55;20.00;;;;;;;;;;4952132;28;20055;-67
2022/01/11 09:24:40;;;;;;;38.63;21.27;;;;;;;;;;4952946;28;20404;-67
2022/01/11 09:27:07;;;;;;;35.90;20.08;;;;;;;;;;4953197;28;20055;-67
2022/01/11 09:29:36;;;;;;;39.70;22.42;;;;;;;;;;4953082;28;20395;-67
2022/01/11 09:32:05;;;;;;;43.25;22.80;;;;;;;;;;4950133;29;20061;-66
2022/01/11 09:34:31;;;;;;;42.13;22.13;;;;;;;;;;4952073;29;20047;-65
2022/01/11 09:36:58;;;;;;;35.22;21.17;;;;;;;;;;4952192;28;20125;-65
2022/01/11 09:39:25;;;;;;;36.95;20.80;;;;;;;;;;4952416;28;20105;-64
2022/01/11 09:41:52;;;;;;;36.95;21.70;;;;;;;;;;4954239;28;20106;-66
2022/01/11 09:44:20;;;;;;;37.95;22.02;;;;;;;;;;4950689;29;20102;-67
2022/01/11 09:46:47;;;;;;;38.20;23.60;;;;;;;;;;4952214;28;20051;-67
2022/01/11 09:49:14;;;;;;;38.13;21.88;;;;;;;;;;4952031;28;20054;-67
2022/01/11 09:51:40;;;;;;;39.67;21.80;;;;;;;;;;4952978;28;20081;-66
2022/01/11 09:54:08;;;;;;;32.42;20.60;;;;;;;;;;4952516;28;20504;-66
2022/01/11 09:56:38;;;;;;;36.88;19.67;;;;;;;;;;4952454;28;20047;-66
2022/01/11 09:59:06;;;;;;;35.72;19.83;;;;;;;;;;4948657;28;20422;-68
2022/01/11 10:01:35;;;;;;;31.02;17.25;;;;;;;;;;4948390;28;20554;-71
2022/01/11 10:04:06;;;;;;;34.90;18.30;;;;;;;;;;4950303;28;20058;-70
2022/01/11 10:06:34;;;;;;;30.17;16.90;;;;;;;;;;4950917;29;20062;-70
2022/01/11 10:09:09;;;;;;;29.50;18.00;;;;;;;;;;4952266;28;20498;-72
2022/01/11 10:11:40;;;;;;;29.00;18.30;;;;;;;;;;4948040;29;20055;-72
2022/01/11 10:14:20;;;;;;;26.77;16.65;;;;;;;;;;4952165;29;20051;-72
2022/01/11 10:16:47;;;;;;;25.83;16.48;;;;;;;;;;4949748;28;20388;-70
2022/01/11 10:19:32;;;;;;;32.67;17.80;;;;;;;;;;4952185;28;20055;-66
2022/01/11 10:22:06;;;;;;;25.33;16.35;;;;;;;;;;4949023;28;20123;-66
2022/01/11 10:24:37;;;;;;;29.50;17.25;;;;;;;;;;4951793;28;20536;-69
2022/01/11 10:27:14;;;;;;;28.98;16.88;;;;;;;;;;4952950;28;20055;-70
2022/01/11 10:29:47;;;;;;;26.63;16.00;;;;;;;;;;4952463;28;20047;-69
2022/01/11 10:32:22;;;;;;;26.13;15.02;;;;;;;;;;4951795;28;20098;-70
2022/01/11 10:34:54;;;;;;;30.75;17.58;;;;;;;;;;4951426;28;20055;-69
2022/01/11 10:37:34;;;;;;;32.67;15.70;;;;;;;;;;4951692;29;20058;-69
2022/01/11 10:40:11;;;;;;;26.00;15.25;;;;;;;;;;4952119;28;20529;-70
2022/01/11 10:42:46;;;;;;;25.98;15.68;;;;;;;;;;4949402;28;20059;-73
2022/01/11 10:45:19;;;;;;;25.48;15.75;;;;;;;;;;4951963;29;20241;-71
2022/01/11 10:47:56;;;;;;;23.70;16.08;;;;;;;;;;4951841;28;20055;-70
2022/01/11 10:50:30;;;;;;;24.17;15.90;;;;;;;;;;4948709;29;20236;-69
2022/01/11 10:53:01;;;;;;;26.88;17.48;;;;;;;;;;4951688;29;20051;-67
2022/01/11 10:55:29;;;;;;;26.83;16.40;;;;;;;;;;4949740;29;21073;-66
2022/01/11 10:58:11;;;;;;;25.88;16.10;;;;;;;;;;4948776;28;20055;-68
2022/01/11 11:00:42;;;;;;;25.85;15.80;;;;;;;;;;4953410;29;20110;-68
2022/01/11 11:03:12;;;;;;;23.00;13.73;;;;;;;;;;4955552;28;20106;-67
2022/01/11 11:05:47;;;;;;;21.90;15.00;;;;;;;;;;4955815;28;20114;-66
2022/01/11 11:08:24;;;;;;;23.20;15.45;;;;;;;;;;4959823;28;20055;-66
2022/01/11 11:10:59;;;;;;;19.42;13.30;;;;;;;;;;4953816;29;20055;-67
2022/01/11 11:13:33;;;;;;;22.67;14.35;;;;;;;;;;4954656;29;20051;-69
2022/01/11 11:16:14;;;;;;;24.38;14.52;;;;;;;;;;4955459;29;20588;-69
2022/01/11 11:18:42;;;;;;;21.70;13.43;;;;;;;;;;4954791;28;20091;-69
2022/01/11 11:21:19;;;;;;;19.33;13.43;;;;;;;;;;4955133;28;20300;-68
2022/01/11 11:23:48;;;;;;;21.10;13.13;;;;;;;;;;4955152;29;20079;-69
2022/01/11 11:26:16;;;;;;;22.73;13.57;;;;;;;;;;4954915;28;20047;-69
2022/01/11 11:28:43;;;;;;;21.50;11.98;;;;;;;;;;4955243;28;20054;-68
2022/01/11 11:31:10;;;;;;;13.05;8.90;;;;;;;;;;4954569;28;20051;-68
2022/01/11 11:33:38;;;;;;;13.13;8.18;;;;;;;;;;4953323;29;20134;-68
2022/01/11 11:36:06;;;;;;;13.27;8.68;;;;;;;;;;4955289;28;20063;-69
2022/01/11 11:38:34;;;;;;;12.15;7.38;;;;;;;;;;4952916;28;20553;-71
2022/01/11 11:41:01;;;;;;;10.27;7.03;;;;;;;;;;4938034;29;20103;-69
2022/01/11 11:43:28;;;;;;;10.48;6.45;;;;;;;;;;4952882;29;20114;-67
2022/01/11 11:45:55;;;;;;;11.88;7.00;;;;;;;;;;4954990;28;20051;-70
2022/01/11 11:48:23;;;;;;;7.30;4.13;;;;;;;;;;4954587;28;20426;-72
2022/01/11 11:50:55;;;;;;;5.05;3.80;;;;;;;;;;4954400;29;20047;-69
2022/01/11 11:53:32;;;;;;;9.20;5.25;;;;;;;;;;4954427;28;20102;-68
2022/01/11 11:56:33;;;;;;;7.50;5.03;;;;;;;;;;4952485;29;20486;-72
2022/01/11 11:59:04;;;;;;;6.53;4.15;;;;;;;;;;4953555;28;20450;-70
2022/01/11 12:01:47;;;;;;;5.13;3.00;;;;;;;;;;4936169;29;20070;-69
2022/01/11 12:04:16;;;;;;;;;;;;;;;;;;4953401;28;20047;-71
2022/01/11 12:06:44;;;;;;;4.10;3.00;;;;;;;;;;4954133;29;20046;-72
2022/01/11 12:09:13;;;;;;;7.10;3.78;;;;;;;;;;4924742;29;20491;-72
2022/01/11 12:11:42;;;;;;;7.38;3.95;;;;;;;;;;4949689;28;20463;-72
2022/01/11 12:14:36;;;;;;;8.13;4.22;;;;;;;;;;4953262;29;20058;-70
2022/01/11 12:17:17;;;;;;;5.93;3.55;;;;;;;;;;4934470;29;20060;-71
2022/01/11 12:19:51;;;;;;;5.82;4.00;;;;;;;;;;4953818;28;20054;-71
2022/01/11 12:22:26;;;;;;;5.85;4.13;;;;;;;;;;4951283;29;20055;-71
2022/01/11 12:24:56;;;;;;;5.03;3.65;;;;;;;;;;4953244;29;20074;-70
2022/01/11 12:27:24;;;;;;;2.35;2.13;;;;;;;;;;4953724;28;20051;-70
2022/01/11 12:29:57;;;;;;;3.60;1.70;;;;;;;;;;4954352;28;20047;-70
2022/01/11 12:32:26;;;;;;;3.83;2.20;;;;;;;;;;4952310;29;20047;-70
2022/01/11 12:35:00;;;;;;;3.95;2.42;;;;;;;;;;4952798;29;20075;-69
2022/01/11 12:37:27;;;;;;;3.47;1.83;;;;;;;;;;4948877;28;20051;-71
2022/01/11 12:40:15;;;;;;;4.03;2.30;;;;;;;;;;4954078;28;20078;-69
2022/01/11 12:42:51;;;;;;;4.57;2.60;;;;;;;;;;4951625;28;20051;-69
2022/01/11 12:45:58;;;;;;;4.25;2.30;;;;;;;;;;4949146;29;20051;-70
2022/01/11 12:48:48;;;;;;;2.70;1.88;;;;;;;;;;4953167;28;20094;-68
2022/01/11 12:51:52;;;;;;;4.20;2.28;;;;;;;;;;4950200;29;20581;-68
2022/01/11 12:54:28;;;;;;;2.95;1.98;;;;;;;;;;4951158;29;20502;-67
2022/01/11 12:56:57;;;;;;;2.28;1.70;;;;;;;;;;4952925;29;20051;-68
2022/01/11 12:59:27;;;;;;;3.95;2.80;;;;;;;;;;4952968;28;20051;-69
2022/01/11 13:02:11;;;;;;;5.00;2.17;;;;;;;;;;4950754;29;20054;-68
2022/01/11 13:04:50;;;;;;;3.10;2.35;;;;;;;;;;4950211;29;20494;-67
2022/01/11 13:07:21;;;;;;;3.63;1.52;;;;;;;;;;4949819;29;20773;-69
2022/01/11 13:09:58;;;;;;;2.30;2.00;;;;;;;;;;4951388;28;20509;-68
2022/01/11 13:12:51;;;;;;;3.45;2.60;;;;;;;;;;4949522;29;20422;-68
2022/01/11 13:15:34;;;;;;;4.22;2.40;;;;;;;;;;4951311;28;20074;-67
2022/01/11 13:18:07;;;;;;;;;;;;;;;;;;4951231;28;20055;-69
2022/01/11 13:21:01;;;;;;;3.65;2.35;;;;;;;;;;4950663;29;19923;-68
2022/01/11 13:23:31;;;;;;;4.18;2.30;;;;;;;;;;4950376;28;20059;-69
2022/01/11 13:26:06;;;;;;;4.18;2.47;;;;;;;;;;4951284;28;20055;-66
2022/01/11 13:28:42;;;;;;;5.45;2.42;;;;;;;;;;4949373;28;20162;-68
2022/01/11 13:31:12;;;;;;;2.78;2.47;;;;;;;;;;4949995;28;20051;-68
2022/01/11 13:33:44;;;;;;;3.45;2.63;;;;;;;;;;4951138;28;20055;-68
2022/01/11 13:36:16;;;;;;;3.47;2.50;;;;;;;;;;4950948;28;20047;-68
2022/01/11 13:38:45;;;;;;;5.63;2.40;;;;;;;;;;4948181;28;20047;-67
2022/01/11 13:41:13;;;;;;;2.78;2.17;;;;;;;;;;4951455;28;20502;-68
2022/01/11 13:44:02;;;;;;;3.55;2.25;;;;;;;;;;4949525;29;20146;-69
2022/01/11 13:46:29;;;;;;;4.82;2.22;;;;;;;;;;4950504;28;20063;-68
2022/01/11 13:48:57;;;;;;;4.30;2.85;;;;;;;;;;4950816;28;20377;-67
2022/01/11 13:51:31;;;;;;;4.07;2.97;;;;;;;;;;4949208;29;20047;-68
2022/01/11 13:54:02;;;;;;;4.97;2.58;;;;;;;;;;4949677;29;20315;-68
2022/01/11 13:56:41;;;;;;;3.40;2.60;;;;;;;;;;4949343;28;20043;-67
2022/01/11 13:59:26;;;;;;;3.88;2.78;;;;;;;;;;4947491;28;20472;-67
2022/01/11 14:02:04;;;;;;;5.40;2.53;;;;;;;;;;4952276;28;20043;-64
2022/01/11 14:05:03;;;;;;;3.05;2.33;;;;;;;;;;4968773;28;20047;-68
2022/01/11 14:07:31;;;;;;;4.22;2.80;;;;;;;;;;4963771;28;20047;-68
2022/01/11 14:10:03;;;;;;;3.03;2.40;;;;;;;;;;4966102;29;20079;-68
2022/01/11 14:13:01;;;;;;;4.15;2.72;;;;;;;;;;4959291;29;20055;-65
2022/01/11 14:15:29;;;;;;;4.00;2.95;;;;;;;;;;4950833;28;20055;-67
2022/01/11 14:17:57;;;;;;;3.88;2.78;;;;;;;;;;4972393;28;20080;-67
2022/01/11 14:20:29;;;;;;;6.97;3.05;;;;;;;;;;4969215;28;20043;-65
2022/01/11 14:23:02;;;;;;;4.10;2.97;;;;;;;;;;4959777;29;20048;-68
2022/01/11 14:25:33;;;;;;;;;;;;;;;;;;4960950;28;20102;-68
2022/01/11 14:28:13;;;;;;;4.38;3.42;;;;;;;;;;4966943;28;19949;-67
2022/01/11 14:30:40;;;;;;;4.05;3.28;;;;;;;;;;4961359;28;20114;-67
2022/01/11 14:33:22;;;;;;;7.10;3.85;;;;;;;;;;4948717;28;20450;-65
2022/01/11 14:36:19;;;;;;;6.63;3.63;;;;;;;;;;4951176;29;20067;-68
2022/01/11 14:38:51;;;;;;;5.50;3.58;;;;;;;;;;4954363;28;20055;-67
2022/01/11 14:41:36;;;;;;;3.88;2.97;;;;;;;;;;4952846;28;20102;-66